createdAt,value
2023-03-16T00:00:13.633Z,1019.34
2023-03-16T00:01:13.644Z,1019.33
2023-03-16T00:02:13.680Z,1019.35
2023-03-16T00:03:13.764Z,1019.32
2023-03-16T00:04:13.963Z,1019.31
2023-03-16T00:05:13.044Z,1019.29
2023-03-16T00:06:13.289Z,1019.28
2023-03-16T00:07:13.334Z,1019.27
2023-03-16T00:08:13.562Z,1019.22
2023-03-16T00:09:13.501Z,1019.23
2023-03-16T00:10:13.812Z,1019.22
2023-03-16T00:11:13.758Z,1019.22
2023-03-16T00:12:13.773Z,1019.18
2023-03-16T00:13:13.883Z,1019.16
2023-03-16T00:14:13.935Z,1019.14
2023-03-16T00:15:13.008Z,1019.17
2023-03-16T00:16:13.178Z,1019.18
2023-03-16T00:17:13.268Z,1019.21
2023-03-16T00:18:13.256Z,1019.17
2023-03-16T00:19:13.348Z,1019.13
2023-03-16T00:20:13.257Z,1019.13
2023-03-16T00:21:14.084Z,1019.14
2023-03-16T00:22:13.007Z,1019.15
2023-03-16T00:23:13.235Z,1019.11
2023-03-16T00:24:13.257Z,1019.16
2023-03-16T00:25:13.148Z,1019.16
2023-03-16T00:26:13.276Z,1019.13
2023-03-16T00:27:13.594Z,1019.13
2023-03-16T00:28:13.538Z,1019.16
2023-03-16T00:29:13.465Z,1019.13
2023-03-16T00:30:13.382Z,1019.14
2023-03-16T00:31:13.395Z,1019.15
2023-03-16T00:32:13.420Z,1019.11
2023-03-16T00:33:13.857Z,1019.07
2023-03-16T00:34:14.076Z,1019.06
2023-03-16T00:35:13.076Z,1019.03
2023-03-16T00:36:13.820Z,1019.04
2023-03-16T00:37:14.007Z,1019.04
2023-03-16T00:38:12.973Z,1019.03
2023-03-16T00:39:12.951Z,1019.05
2023-03-16T00:40:13.096Z,1019.08
2023-03-16T00:41:13.047Z,1019.05
2023-03-16T00:42:13.031Z,1019.06
2023-03-16T00:43:13.386Z,1019.05
2023-03-16T00:44:13.642Z,1019.08
2023-03-16T00:45:13.595Z,1019.11
2023-03-16T00:46:13.621Z,1019.11
2023-03-16T00:47:13.712Z,1019.17
2023-03-16T00:48:13.627Z,1019.16
2023-03-16T00:49:13.544Z,1019.13
2023-03-16T00:50:13.724Z,1019.12
2023-03-16T00:51:13.782Z,1019.07
2023-03-16T00:52:13.993Z,1019.13
2023-03-16T00:53:13.152Z,1019.08
2023-03-16T00:54:13.188Z,1019.04
2023-03-16T00:55:13.479Z,1019.03
2023-03-16T00:56:14.406Z,1019.00
2023-03-16T00:57:13.336Z,1018.99
2023-03-16T00:58:13.457Z,1018.98
2023-03-16T00:59:13.836Z,1018.95
2023-03-16T01:00:13.847Z,1018.96
2023-03-16T01:01:15.178Z,1018.98
2023-03-16T01:02:13.303Z,1018.98
2023-03-16T01:03:13.571Z,1019.02
2023-03-16T01:04:13.763Z,1019.06
2023-03-16T01:05:13.846Z,1019.08
2023-03-16T01:06:13.760Z,1019.11
2023-03-16T01:07:13.878Z,1019.12
2023-03-16T01:08:12.872Z,1019.17
2023-03-16T01:09:14.019Z,1019.19
2023-03-16T01:10:12.978Z,1019.19
2023-03-16T01:11:13.257Z,1019.19
2023-03-16T01:12:13.399Z,1019.20
2023-03-16T01:13:13.407Z,1019.21
2023-03-16T01:14:13.388Z,1019.26
2023-03-16T01:15:13.408Z,1019.22
2023-03-16T01:16:13.233Z,1019.24
2023-03-16T01:17:13.217Z,1019.23
2023-03-16T01:18:13.219Z,1019.21
2023-03-16T01:19:13.269Z,1019.19
2023-03-16T01:20:13.170Z,1019.16
2023-03-16T01:21:13.374Z,1019.15
2023-03-16T01:22:13.341Z,1019.09
2023-03-16T01:23:13.520Z,1019.06
2023-03-16T01:24:14.801Z,1019.01
2023-03-16T01:25:13.952Z,1019.02
2023-03-16T01:26:12.877Z,1019.00
2023-03-16T01:27:13.852Z,1018.96
2023-03-16T01:28:14.861Z,1018.96
2023-03-16T01:29:13.866Z,1018.98
2023-03-16T01:30:13.768Z,1018.93
2023-03-16T01:31:13.886Z,1018.94
2023-03-16T01:32:12.961Z,1018.95
2023-03-16T01:33:12.826Z,1018.90
2023-03-16T01:34:13.785Z,1018.88
2023-03-16T01:35:13.949Z,1018.88
2023-03-16T01:36:12.876Z,1018.87
2023-03-16T01:37:13.096Z,1018.86
2023-03-16T01:38:13.050Z,1018.84
2023-03-16T01:39:12.982Z,1018.79
2023-03-16T01:40:13.312Z,1018.82
2023-03-16T01:41:13.237Z,1018.79
2023-03-16T01:42:13.424Z,1018.79
2023-03-16T01:43:13.508Z,1018.75
2023-03-16T01:44:13.362Z,1018.72
2023-03-16T01:45:13.471Z,1018.67
2023-03-16T01:46:13.498Z,1018.62
2023-03-16T01:47:13.763Z,1018.65
2023-03-16T01:48:13.879Z,1018.63
2023-03-16T01:49:12.827Z,1018.59
2023-03-16T01:50:13.756Z,1018.54
2023-03-16T01:51:13.653Z,1018.50
2023-03-16T01:52:13.802Z,1018.48
2023-03-16T01:53:13.982Z,1018.50
2023-03-16T01:54:12.997Z,1018.41
2023-03-16T01:55:13.005Z,1018.41
2023-03-16T01:56:13.090Z,1018.42
2023-03-16T01:57:13.362Z,1018.44
2023-03-16T01:58:13.587Z,1018.45
2023-03-16T01:59:13.670Z,1018.48
2023-03-16T02:00:13.786Z,1018.46
2023-03-16T02:01:13.786Z,1018.54
2023-03-16T02:02:14.158Z,1018.55
2023-03-16T02:03:13.613Z,1018.55
2023-03-16T02:04:13.573Z,1018.53
2023-03-16T02:05:13.868Z,1018.53
2023-03-16T02:06:14.071Z,1018.54
2023-03-16T02:07:13.525Z,1018.49
2023-03-16T02:08:13.699Z,1018.45
2023-03-16T02:09:13.788Z,1018.43
2023-03-16T02:10:13.962Z,1018.42
2023-03-16T02:11:12.925Z,1018.41
2023-03-16T02:12:12.986Z,1018.40
2023-03-16T02:13:12.928Z,1018.38
2023-03-16T02:14:13.206Z,1018.35
2023-03-16T02:15:13.135Z,1018.30
2023-03-16T02:16:13.147Z,1018.32
2023-03-16T02:17:13.248Z,1018.27
2023-03-16T02:18:13.538Z,1018.25
2023-03-16T02:19:13.616Z,1018.21
2023-03-16T02:20:13.675Z,1018.23
2023-03-16T02:21:13.598Z,1018.22
2023-03-16T02:22:13.606Z,1018.15
2023-03-16T02:23:13.767Z,1018.14
2023-03-16T02:24:13.857Z,1018.17
2023-03-16T02:25:14.049Z,1018.19
2023-03-16T02:26:12.979Z,1018.19
2023-03-16T02:27:13.050Z,1018.20
2023-03-16T02:28:13.235Z,1018.23
2023-03-16T02:29:13.608Z,1018.20
2023-03-16T02:30:13.589Z,1018.21
2023-03-16T02:31:13.626Z,1018.16
2023-03-16T02:32:13.721Z,1018.14
2023-03-16T02:33:13.764Z,1018.08
2023-03-16T02:34:13.773Z,1018.05
2023-03-16T02:35:13.751Z,1018.03
2023-03-16T02:36:13.603Z,1017.99
2023-03-16T02:37:13.662Z,1018.01
2023-03-16T02:38:13.682Z,1017.97
2023-03-16T02:39:13.666Z,1018.02
2023-03-16T02:40:13.649Z,1018.03
2023-03-16T02:41:13.560Z,1018.03
2023-03-16T02:42:13.563Z,1018.02
2023-03-16T02:43:13.744Z,1018.02
2023-03-16T02:44:13.797Z,1018.05
2023-03-16T02:45:13.744Z,1017.99
2023-03-16T02:46:13.731Z,1018.04
2023-03-16T02:47:14.178Z,1017.99
2023-03-16T02:48:13.110Z,1018.03
2023-03-16T02:49:13.063Z,1018.01
2023-03-16T02:50:13.005Z,1018.03
2023-03-16T02:51:13.772Z,1017.99
2023-03-16T02:52:13.648Z,1018.00
2023-03-16T02:53:13.578Z,1017.99
2023-03-16T02:54:13.718Z,1017.98
2023-03-16T02:55:13.909Z,1017.98
2023-03-16T02:56:12.744Z,1017.97
2023-03-16T02:57:13.686Z,1017.96
2023-03-16T02:58:13.608Z,1018.01
2023-03-16T02:59:13.926Z,1018.04
2023-03-16T03:00:12.894Z,1018.00
2023-03-16T03:01:12.793Z,1018.00
2023-03-16T03:02:14.804Z,1018.02
2023-03-16T03:03:13.771Z,1017.97
2023-03-16T03:04:13.769Z,1018.00
2023-03-16T03:05:14.378Z,1017.95
2023-03-16T03:06:13.371Z,1017.93
2023-03-16T03:07:13.463Z,1017.89
2023-03-16T03:08:13.522Z,1017.85
2023-03-16T03:09:13.660Z,1017.90
2023-03-16T03:10:13.691Z,1017.84
2023-03-16T03:11:13.816Z,1017.83
2023-03-16T03:12:14.014Z,1017.81
2023-03-16T03:13:13.364Z,1017.78
2023-03-16T03:14:13.468Z,1017.79
2023-03-16T03:15:13.611Z,1017.78
2023-03-16T03:16:13.564Z,1017.82
2023-03-16T03:17:13.553Z,1017.83
2023-03-16T03:18:13.488Z,1017.80
2023-03-16T03:19:13.891Z,1017.80
2023-03-16T03:20:13.915Z,1017.74
2023-03-16T03:21:13.182Z,1017.73
2023-03-16T03:22:13.182Z,1017.71
2023-03-16T03:23:13.081Z,1017.70
2023-03-16T03:24:13.052Z,1017.74
2023-03-16T03:25:13.067Z,1017.75
2023-03-16T03:26:13.524Z,1017.75
2023-03-16T03:27:13.859Z,1017.77
2023-03-16T03:28:14.258Z,1017.77
2023-03-16T03:29:13.118Z,1017.74
2023-03-16T03:30:13.036Z,1017.77
2023-03-16T03:31:13.173Z,1017.75
2023-03-16T03:32:13.147Z,1017.77
2023-03-16T03:33:13.442Z,1017.73
2023-03-16T03:34:13.839Z,1017.74
2023-03-16T03:35:13.744Z,1017.70
2023-03-16T03:36:13.926Z,1017.67
2023-03-16T03:37:12.999Z,1017.65
2023-03-16T03:38:13.127Z,1017.62
2023-03-16T03:39:13.588Z,1017.60
2023-03-16T03:40:13.715Z,1017.57
2023-03-16T03:41:13.851Z,1017.57
2023-03-16T03:42:13.984Z,1017.53
2023-03-16T03:43:12.929Z,1017.54
2023-03-16T03:44:13.269Z,1017.59
2023-03-16T03:45:13.592Z,1017.59
2023-03-16T03:46:14.056Z,1017.64
2023-03-16T03:47:13.139Z,1017.65
2023-03-16T03:48:13.177Z,1017.63
2023-03-16T03:49:13.258Z,1017.60
2023-03-16T03:50:13.260Z,1017.58
2023-03-16T03:51:13.217Z,1017.54
2023-03-16T03:52:13.360Z,1017.54
2023-03-16T03:53:13.479Z,1017.57
2023-03-16T03:54:13.345Z,1017.58
2023-03-16T03:55:13.462Z,1017.60
2023-03-16T03:56:13.575Z,1017.55
2023-03-16T03:57:13.735Z,1017.61
2023-03-16T03:58:13.633Z,1017.61
2023-03-16T03:59:14.097Z,1017.55
2023-03-16T04:00:13.198Z,1017.56
2023-03-16T04:01:13.511Z,1017.54
2023-03-16T04:02:13.595Z,1017.55
2023-03-16T04:03:13.659Z,1017.52
2023-03-16T04:04:13.608Z,1017.54
2023-03-16T04:05:13.537Z,1017.47
2023-03-16T04:06:13.602Z,1017.45
2023-03-16T04:07:13.724Z,1017.45
2023-03-16T04:08:13.768Z,1017.45
2023-03-16T04:09:14.032Z,1017.45
2023-03-16T04:10:13.121Z,1017.45
2023-03-16T04:11:13.248Z,1017.46
2023-03-16T04:12:13.689Z,1017.43
2023-03-16T04:13:13.640Z,1017.47
2023-03-16T04:14:13.633Z,1017.45
2023-03-16T04:15:13.809Z,1017.40
2023-03-16T04:16:13.706Z,1017.39
2023-03-16T04:17:13.693Z,1017.40
2023-03-16T04:18:13.881Z,1017.40
2023-03-16T04:19:13.750Z,1017.38
2023-03-16T04:20:13.606Z,1017.33
2023-03-16T04:21:13.770Z,1017.30
2023-03-16T04:22:14.077Z,1017.31
2023-03-16T04:23:13.122Z,1017.25
2023-03-16T04:24:13.449Z,1017.25
2023-03-16T04:25:13.571Z,1017.23
2023-03-16T04:26:13.841Z,1017.22
2023-03-16T04:27:13.803Z,1017.18
2023-03-16T04:28:14.184Z,1017.14
2023-03-16T04:29:13.124Z,1017.16
2023-03-16T04:30:13.260Z,1017.09
2023-03-16T04:31:13.296Z,1017.12
2023-03-16T04:32:13.627Z,1017.09
2023-03-16T04:33:13.831Z,1017.10
2023-03-16T04:34:13.754Z,1017.12
2023-03-16T04:35:14.129Z,1017.07
2023-03-16T04:36:13.208Z,1017.06
2023-03-16T04:37:13.450Z,1017.09
2023-03-16T04:38:13.646Z,1017.07
2023-03-16T04:39:13.673Z,1017.09
2023-03-16T04:40:13.796Z,1017.07
2023-03-16T04:41:14.030Z,1017.06
2023-03-16T04:42:13.330Z,1017.05
2023-03-16T04:43:13.407Z,1017.00
2023-03-16T04:44:13.324Z,1017.02
2023-03-16T04:45:13.424Z,1017.03
2023-03-16T04:46:13.583Z,1017.03
2023-03-16T04:47:13.798Z,1016.97
2023-03-16T04:48:13.996Z,1017.01
2023-03-16T04:49:13.163Z,1017.00
2023-03-16T04:50:13.283Z,1017.02
2023-03-16T04:51:13.866Z,1017.04
2023-03-16T04:52:12.892Z,1017.01
2023-03-16T04:53:13.195Z,1016.99
2023-03-16T04:54:13.233Z,1017.01
2023-03-16T04:55:13.570Z,1017.01
2023-03-16T04:56:13.742Z,1016.97
2023-03-16T04:57:13.641Z,1016.97
2023-03-16T04:58:13.547Z,1016.95
2023-03-16T04:59:14.310Z,1016.97
2023-03-16T05:00:13.359Z,1017.02
2023-03-16T05:01:13.503Z,1016.95
2023-03-16T05:02:13.443Z,1016.97
2023-03-16T05:03:13.676Z,1016.94
2023-03-16T05:04:19.193Z,1016.95
2023-03-16T05:05:12.928Z,1016.92
2023-03-16T05:06:12.917Z,1016.97
2023-03-16T05:07:13.046Z,1016.96
2023-03-16T05:08:12.969Z,1016.95
2023-03-16T05:09:13.244Z,1016.92
2023-03-16T05:10:13.184Z,1016.92
2023-03-16T05:11:13.415Z,1016.90
2023-03-16T05:12:13.525Z,1016.91
2023-03-16T05:13:13.640Z,1016.89
2023-03-16T05:14:14.140Z,1016.93
2023-03-16T05:15:13.571Z,1016.91
2023-03-16T05:16:18.589Z,1016.95
2023-03-16T05:17:13.503Z,1016.93
2023-03-16T05:18:13.604Z,1016.92
2023-03-16T05:19:13.558Z,1016.93
2023-03-16T05:20:15.941Z,1016.88
2023-03-16T05:21:14.198Z,1016.89
2023-03-16T05:22:13.344Z,1016.85
2023-03-16T05:23:13.774Z,1016.83
2023-03-16T05:24:13.801Z,1016.82
2023-03-16T05:26:18.826Z,1016.84
2023-03-16T05:27:14.078Z,1016.83
2023-03-16T05:28:13.241Z,1016.84
2023-03-16T05:29:13.226Z,1016.81
2023-03-16T05:30:13.164Z,1016.81
2023-03-16T05:31:13.150Z,1016.79
2023-03-16T05:32:13.060Z,1016.79
2023-03-16T05:33:13.401Z,1016.76
2023-03-16T05:34:13.371Z,1016.80
2023-03-16T05:35:13.556Z,1016.75
2023-03-16T05:36:13.578Z,1016.77
2023-03-16T05:37:13.635Z,1016.76
2023-03-16T05:38:13.945Z,1016.77
2023-03-16T05:39:12.850Z,1016.75
2023-03-16T05:40:13.739Z,1016.75
2023-03-16T05:41:14.105Z,1016.73
2023-03-16T05:42:13.033Z,1016.75
2023-03-16T05:43:13.293Z,1016.75
2023-03-16T05:44:13.311Z,1016.78
2023-03-16T05:45:13.563Z,1016.74
2023-03-16T05:46:13.510Z,1016.74
2023-03-16T05:47:13.402Z,1016.75
2023-03-16T05:48:13.660Z,1016.74
2023-03-16T05:49:13.665Z,1016.81
2023-03-16T05:50:13.768Z,1016.75
2023-03-16T05:51:13.842Z,1016.83
2023-03-16T05:52:13.661Z,1016.81
2023-03-16T05:53:13.737Z,1016.81
2023-03-16T05:54:13.693Z,1016.80
2023-03-16T05:55:13.924Z,1016.80
2023-03-16T05:56:13.219Z,1016.76
2023-03-16T05:57:13.518Z,1016.82
2023-03-16T05:58:13.952Z,1016.81
2023-03-16T05:59:13.150Z,1016.86
2023-03-16T06:00:13.091Z,1016.86
2023-03-16T06:01:13.084Z,1016.92
2023-03-16T06:02:13.072Z,1016.93
2023-03-16T06:03:13.236Z,1016.97
2023-03-16T06:04:13.352Z,1016.99
2023-03-16T06:05:13.635Z,1016.97
2023-03-16T06:06:13.606Z,1016.96
2023-03-16T06:07:13.562Z,1016.96
2023-03-16T06:08:13.422Z,1016.99
2023-03-16T06:09:13.715Z,1017.00
2023-03-16T06:10:13.810Z,1017.01
2023-03-16T06:11:13.775Z,1016.97
2023-03-16T06:12:13.711Z,1016.99
2023-03-16T06:13:13.645Z,1017.02
2023-03-16T06:14:13.710Z,1017.04
2023-03-16T06:15:14.020Z,1017.06
2023-03-16T06:16:13.037Z,1017.07
2023-03-16T06:17:13.733Z,1017.07
2023-03-16T06:18:13.664Z,1017.08
2023-03-16T06:19:13.777Z,1017.02
2023-03-16T06:20:13.749Z,1017.02
2023-03-16T06:21:13.650Z,1017.03
2023-03-16T06:22:13.637Z,1016.97
2023-03-16T06:23:13.609Z,1016.98
2023-03-16T06:24:13.786Z,1016.97
2023-03-16T06:25:13.946Z,1016.98
2023-03-16T06:26:13.037Z,1016.98
2023-03-16T06:27:13.111Z,1017.02
2023-03-16T06:28:13.020Z,1017.03
2023-03-16T06:29:13.143Z,1016.97
2023-03-16T06:30:13.020Z,1017.00
2023-03-16T06:31:13.211Z,1016.99
2023-03-16T06:32:13.581Z,1017.00
2023-03-16T06:33:13.612Z,1016.98
2023-03-16T06:34:13.896Z,1017.01
2023-03-16T06:35:12.843Z,1017.01
2023-03-16T06:36:14.027Z,1017.03
2023-03-16T06:37:13.027Z,1017.02
2023-03-16T06:38:12.931Z,1017.01
2023-03-16T06:39:13.319Z,1017.01
2023-03-16T06:40:13.535Z,1016.98
2023-03-16T06:41:13.758Z,1016.94
2023-03-16T06:42:13.679Z,1016.94
2023-03-16T06:43:14.724Z,1016.88
2023-03-16T06:44:13.645Z,1016.96
2023-03-16T06:45:13.627Z,1016.94
2023-03-16T06:46:13.791Z,1016.97
2023-03-16T06:47:13.953Z,1017.01
2023-03-16T06:48:12.848Z,1016.98
2023-03-16T06:49:13.840Z,1016.96
2023-03-16T06:50:13.831Z,1017.04
2023-03-16T06:51:16.670Z,1017.02
2023-03-16T06:52:12.729Z,1016.96
2023-03-16T06:53:13.864Z,1017.01
2023-03-16T06:54:13.860Z,1017.01
2023-03-16T06:55:13.977Z,1016.97
2023-03-16T06:56:13.152Z,1016.98
2023-03-16T06:57:13.083Z,1016.92
2023-03-16T06:58:13.032Z,1016.95
2023-03-16T06:59:13.418Z,1016.95
2023-03-16T07:00:13.498Z,1017.01
2023-03-16T07:01:13.420Z,1017.01
2023-03-16T07:02:13.651Z,1016.99
2023-03-16T07:03:13.656Z,1016.96
2023-03-16T07:04:13.921Z,1016.97
2023-03-16T07:05:14.432Z,1017.02
2023-03-16T07:06:13.335Z,1016.96
2023-03-16T07:07:13.160Z,1017.01
2023-03-16T07:08:13.679Z,1017.02
2023-03-16T07:09:13.816Z,1016.99
2023-03-16T07:10:13.868Z,1016.97
2023-03-16T07:11:14.181Z,1017.03
2023-03-16T07:12:13.108Z,1017.02
2023-03-16T07:13:13.303Z,1017.00
2023-03-16T07:14:13.634Z,1017.07
2023-03-16T07:15:13.596Z,1017.06
2023-03-16T07:16:14.084Z,1017.04
2023-03-16T07:17:13.052Z,1017.08
2023-03-16T07:18:13.011Z,1017.07
2023-03-16T07:19:13.427Z,1017.04
2023-03-16T07:20:13.300Z,1017.04
2023-03-16T07:21:13.378Z,1017.11
2023-03-16T07:22:13.360Z,1017.08
2023-03-16T07:23:13.406Z,1017.10
2023-03-16T07:24:13.391Z,1017.07
2023-03-16T07:25:13.367Z,1017.06
2023-03-16T07:26:14.798Z,1017.12
2023-03-16T07:27:14.143Z,1017.08
2023-03-16T07:28:13.479Z,1017.15
2023-03-16T07:29:13.787Z,1017.11
2023-03-16T07:30:13.878Z,1017.17
2023-03-16T07:31:13.826Z,1017.14
2023-03-16T07:32:14.121Z,1017.19
2023-03-16T07:33:13.188Z,1017.20
2023-03-16T07:34:13.205Z,1017.16
2023-03-16T07:35:13.226Z,1017.15
2023-03-16T07:36:13.355Z,1017.11
2023-03-16T07:37:14.065Z,1017.15
2023-03-16T07:38:12.974Z,1017.14
2023-03-16T07:39:13.151Z,1017.19
2023-03-16T07:40:13.332Z,1017.12
2023-03-16T07:41:13.724Z,1017.11
2023-03-16T07:42:13.598Z,1017.13
2023-03-16T07:43:13.906Z,1017.16
2023-03-16T07:44:13.053Z,1017.16
2023-03-16T07:45:13.198Z,1017.19
2023-03-16T07:46:13.584Z,1017.14
2023-03-16T07:47:13.861Z,1017.15
2023-03-16T07:48:14.035Z,1017.13
2023-03-16T07:49:12.982Z,1017.17
2023-03-16T07:50:12.904Z,1017.09
2023-03-16T07:51:13.089Z,1017.12
2023-03-16T07:52:13.091Z,1017.14
2023-03-16T07:53:13.183Z,1017.24
2023-03-16T07:54:13.527Z,1017.19
2023-03-16T07:55:13.584Z,1017.20
2023-03-16T07:56:13.777Z,1017.27
2023-03-16T07:57:13.652Z,1017.21
2023-03-16T07:58:13.707Z,1017.23
2023-03-16T07:59:14.527Z,1017.30
2023-03-16T08:00:13.642Z,1017.23
2023-03-16T08:01:13.737Z,1017.27
2023-03-16T08:02:14.004Z,1017.25
2023-03-16T08:03:13.055Z,1017.25
2023-03-16T08:04:13.380Z,1017.19
2023-03-16T08:05:13.705Z,1017.24
2023-03-16T08:06:13.854Z,1017.26
2023-03-16T08:07:14.089Z,1017.17
2023-03-16T08:08:13.245Z,1017.26
2023-03-16T08:09:13.348Z,1017.26
2023-03-16T08:10:13.427Z,1017.15
2023-03-16T08:11:13.309Z,1017.14
2023-03-16T08:12:13.205Z,1017.18
2023-03-16T08:13:13.160Z,1017.14
2023-03-16T08:14:13.203Z,1017.20
2023-03-16T08:15:13.714Z,1017.11
2023-03-16T08:16:13.957Z,1017.15
2023-03-16T08:17:13.104Z,1017.06
2023-03-16T08:18:13.397Z,1017.14
2023-03-16T08:19:13.657Z,1017.09
2023-03-16T08:20:13.716Z,1017.03
2023-03-16T08:21:13.772Z,1017.05
2023-03-16T08:22:14.034Z,1016.96
2023-03-16T08:23:13.030Z,1017.08
2023-03-16T08:24:13.182Z,1016.95
2023-03-16T08:25:13.228Z,1016.98
2023-03-16T08:26:13.237Z,1016.97
2023-03-16T08:27:13.579Z,1017.00
2023-03-16T08:28:13.682Z,1016.98
2023-03-16T08:29:13.990Z,1017.00
2023-03-16T08:30:13.008Z,1017.03
2023-03-16T08:31:12.989Z,1016.91
2023-03-16T08:32:13.256Z,1017.03
2023-03-16T08:33:13.363Z,1017.01
2023-03-16T08:34:13.584Z,1017.01
2023-03-16T08:35:13.601Z,1017.04
2023-03-16T08:36:14.012Z,1017.05
2023-03-16T08:37:13.527Z,1017.04
2023-03-16T08:38:13.660Z,1017.01
2023-03-16T08:39:13.883Z,1017.00
2023-03-16T08:40:13.863Z,1017.02
2023-03-16T08:41:13.921Z,1017.04
2023-03-16T08:42:12.875Z,1017.10
2023-03-16T08:43:13.875Z,1017.02
2023-03-16T08:44:14.032Z,1016.95
2023-03-16T08:45:14.383Z,1017.01
2023-03-16T08:46:14.130Z,1017.02
2023-03-16T08:47:13.137Z,1017.01
2023-03-16T08:48:13.349Z,1017.03
2023-03-16T08:49:13.242Z,1017.04
2023-03-16T08:50:13.301Z,1016.99
2023-03-16T08:51:13.434Z,1016.95
2023-03-16T08:52:13.407Z,1016.95
2023-03-16T08:53:13.434Z,1016.99
2023-03-16T08:54:13.648Z,1016.98
2023-03-16T08:55:13.575Z,1017.09
2023-03-16T08:56:13.701Z,1017.00
2023-03-16T08:57:13.844Z,1017.06
2023-03-16T08:58:13.852Z,1017.03
2023-03-16T08:59:27.032Z,1017.07
2023-03-16T09:00:12.819Z,1017.10
2023-03-16T09:01:13.823Z,1017.09
2023-03-16T09:02:14.075Z,1017.07
2023-03-16T09:03:13.470Z,1017.11
2023-03-16T09:04:13.757Z,1017.05
2023-03-16T09:05:13.723Z,1017.06
2023-03-16T09:06:14.142Z,1017.11
2023-03-16T09:07:13.459Z,1017.10
2023-03-16T09:08:13.686Z,1017.16
2023-03-16T09:09:13.664Z,1017.17
2023-03-16T09:10:13.703Z,1017.18
2023-03-16T09:11:13.681Z,1017.12
2023-03-16T09:12:13.674Z,1017.19
2023-03-16T09:13:13.649Z,1017.11
2023-03-16T09:14:13.627Z,1017.18
2023-03-16T09:15:13.650Z,1017.21
2023-03-16T09:16:13.665Z,1017.23
2023-03-16T09:17:13.641Z,1017.24
2023-03-16T09:18:13.850Z,1017.23
2023-03-16T09:19:14.122Z,1017.21
2023-03-16T09:20:35.045Z,1017.23
2023-03-16T09:21:13.391Z,1017.21
2023-03-16T09:22:13.628Z,1017.21
2023-03-16T09:23:13.857Z,1017.21
2023-03-16T09:24:14.101Z,1017.23
2023-03-16T09:25:13.236Z,1017.27
2023-03-16T09:26:13.106Z,1017.25
2023-03-16T09:27:13.199Z,1017.25
2023-03-16T09:28:13.715Z,1017.22
2023-03-16T09:29:13.948Z,1017.26
2023-03-16T09:30:13.044Z,1017.24
2023-03-16T09:31:13.104Z,1017.31
2023-03-16T09:32:13.616Z,1017.28
2023-03-16T09:33:13.853Z,1017.28
2023-03-16T09:34:15.118Z,1017.30
2023-03-16T09:35:13.040Z,1017.29
2023-03-16T09:36:13.367Z,1017.28
2023-03-16T09:37:13.416Z,1017.28
2023-03-16T09:38:13.380Z,1017.31
2023-03-16T09:39:13.303Z,1017.34
2023-03-16T09:40:13.434Z,1017.33
2023-03-16T09:41:13.399Z,1017.34
2023-03-16T09:42:13.298Z,1017.31
2023-03-16T09:43:13.283Z,1017.31
2023-03-16T09:44:13.187Z,1017.32
2023-03-16T09:45:13.183Z,1017.26
2023-03-16T09:46:13.352Z,1017.27
2023-03-16T09:47:13.447Z,1017.29
2023-03-16T09:48:13.322Z,1017.30
2023-03-16T09:49:13.303Z,1017.25
2023-03-16T09:50:13.311Z,1017.21
2023-03-16T09:51:13.306Z,1017.21
2023-03-16T09:52:13.797Z,1017.24
2023-03-16T09:53:13.798Z,1017.27
2023-03-16T09:54:13.794Z,1017.22
2023-03-16T09:55:13.824Z,1017.20
2023-03-16T09:56:13.902Z,1017.23
2023-03-16T09:57:12.805Z,1017.19
2023-03-16T09:58:13.803Z,1017.14
2023-03-16T09:59:13.695Z,1017.16
2023-03-16T10:00:13.612Z,1017.15
2023-03-16T10:01:13.672Z,1017.15
2023-03-16T10:02:13.740Z,1017.09
2023-03-16T10:03:13.749Z,1017.05
2023-03-16T10:04:13.700Z,1017.14
2023-03-16T10:05:13.966Z,1017.10
2023-03-16T10:06:13.798Z,1017.14
2023-03-16T10:07:13.788Z,1017.18
2023-03-16T10:08:13.903Z,1017.00
2023-03-16T10:09:13.196Z,1017.13
2023-03-16T10:10:13.571Z,1017.13
2023-03-16T10:11:13.411Z,1017.15
2023-03-16T10:12:13.571Z,1017.13
2023-03-16T10:13:13.545Z,1017.16
2023-03-16T10:14:13.790Z,1017.15
2023-03-16T10:15:13.787Z,1017.16
2023-03-16T10:16:14.920Z,1017.07
2023-03-16T10:17:12.864Z,1017.12
2023-03-16T10:18:13.902Z,1017.16
2023-03-16T10:19:12.909Z,1017.02
2023-03-16T10:20:13.141Z,1017.10
2023-03-16T10:21:13.440Z,1017.06
2023-03-16T10:22:13.576Z,1017.12
2023-03-16T10:23:13.612Z,1017.07
2023-03-16T10:24:13.552Z,1017.05
2023-03-16T10:25:13.676Z,1017.02
2023-03-16T10:26:13.961Z,1017.09
2023-03-16T10:27:13.201Z,1017.09
2023-03-16T10:28:13.413Z,1017.05
2023-03-16T10:29:13.427Z,1017.11
2023-03-16T10:30:13.677Z,1017.12
2023-03-16T10:31:13.867Z,1017.11
2023-03-16T10:32:12.800Z,1016.99
2023-03-16T10:33:15.030Z,1017.00
2023-03-16T10:34:13.312Z,1016.95
2023-03-16T10:35:13.240Z,1016.93
2023-03-16T10:36:13.533Z,1017.01
2023-03-16T10:37:14.144Z,1017.03
2023-03-16T10:38:14.048Z,1017.05
2023-03-16T10:39:13.087Z,1017.02
2023-03-16T10:40:12.991Z,1017.05
2023-03-16T10:41:12.883Z,1017.10
2023-03-16T10:42:12.827Z,1017.06
2023-03-16T10:43:13.783Z,1017.03
2023-03-16T10:44:14.049Z,1017.10
2023-03-16T10:45:13.160Z,1017.15
2023-03-16T10:46:14.955Z,1017.07
2023-03-16T10:47:13.465Z,1017.10
2023-03-16T10:48:13.445Z,1017.12
2023-03-16T10:49:13.454Z,1017.11
2023-03-16T10:50:14.403Z,1017.12
2023-03-16T10:51:13.576Z,1017.05
2023-03-16T10:52:13.989Z,1017.10
2023-03-16T10:53:12.971Z,1017.11
2023-03-16T10:54:12.864Z,1017.08
2023-03-16T10:55:13.812Z,1017.01
2023-03-16T10:56:13.979Z,1017.05
2023-03-16T10:57:13.398Z,1017.00
2023-03-16T10:58:13.510Z,1016.97
2023-03-16T10:59:13.491Z,1016.96
2023-03-16T11:00:13.557Z,1016.96
2023-03-16T11:01:13.617Z,1016.89
2023-03-16T11:02:13.981Z,1016.91
2023-03-16T11:03:13.193Z,1016.88
2023-03-16T11:04:13.558Z,1016.83
2023-03-16T11:05:13.526Z,1016.82
2023-03-16T11:06:13.497Z,1016.73
2023-03-16T11:07:13.784Z,1016.68
2023-03-16T11:08:13.856Z,1016.67
2023-03-16T11:09:13.764Z,1016.59
2023-03-16T11:10:13.754Z,1016.55
2023-03-16T11:11:13.790Z,1016.51
2023-03-16T11:12:14.141Z,1016.56
2023-03-16T11:13:13.455Z,1016.60
2023-03-16T11:14:13.552Z,1016.60
2023-03-16T11:15:25.281Z,1016.57
2023-03-16T11:16:14.297Z,1016.53
2023-03-16T11:17:13.686Z,1016.50
2023-03-16T11:18:13.968Z,1016.51
2023-03-16T11:19:12.922Z,1016.49
2023-03-16T11:20:12.866Z,1016.49
2023-03-16T11:21:13.770Z,1016.44
2023-03-16T11:22:14.293Z,1016.43
2023-03-16T11:23:13.558Z,1016.40
2023-03-16T11:24:13.916Z,1016.34
2023-03-16T11:25:13.080Z,1016.34
2023-03-16T11:26:13.232Z,1016.35
2023-03-16T11:27:13.503Z,1016.31
2023-03-16T11:28:13.818Z,1016.35
2023-03-16T11:29:14.188Z,1016.34
2023-03-16T11:30:13.622Z,1016.40
2023-03-16T11:31:14.098Z,1016.38
2023-03-16T11:32:14.199Z,1016.40
2023-03-16T11:33:13.351Z,1016.39
2023-03-16T11:34:13.411Z,1016.44
2023-03-16T11:35:13.417Z,1016.36
2023-03-16T11:36:13.513Z,1016.38
2023-03-16T11:37:13.581Z,1016.31
2023-03-16T11:38:13.531Z,1016.28
2023-03-16T11:39:13.603Z,1016.20
2023-03-16T11:40:13.550Z,1016.18
2023-03-16T11:41:13.812Z,1016.17
2023-03-16T11:42:13.703Z,1016.12
2023-03-16T11:43:13.972Z,1016.10
2023-03-16T11:44:13.156Z,1016.07
2023-03-16T11:45:13.022Z,1016.09
2023-03-16T11:46:13.141Z,1016.11
2023-03-16T11:47:13.563Z,1016.08
2023-03-16T11:48:13.522Z,1016.07
2023-03-16T11:49:13.870Z,1016.07
2023-03-16T11:50:13.945Z,1016.04
2023-03-16T11:51:12.960Z,1016.00
2023-03-16T11:52:12.969Z,1016.02
2023-03-16T11:53:13.066Z,1016.04
2023-03-16T11:54:13.237Z,1016.04
2023-03-16T11:55:13.444Z,1015.97
2023-03-16T11:56:13.441Z,1016.01
2023-03-16T11:57:13.529Z,1016.02
2023-03-16T11:58:13.693Z,1015.94
2023-03-16T11:59:14.040Z,1015.85
2023-03-16T12:00:13.245Z,1015.96
2023-03-16T12:01:13.493Z,1015.95
2023-03-16T12:02:13.501Z,1015.93
2023-03-16T12:03:13.774Z,1015.87
2023-03-16T12:04:13.868Z,1015.83
2023-03-16T12:05:12.810Z,1015.80
2023-03-16T12:06:22.671Z,1015.84